createdAt,value
2022-08-18T00:01:23.009Z,70.69
2022-08-18T00:03:57.318Z,71.88
2022-08-18T00:06:30.118Z,71.89
2022-08-18T00:09:01.601Z,72.43
2022-08-18T00:11:41.301Z,72.63
2022-08-18T00:14:21.751Z,72.95
2022-08-18T00:16:52.525Z,73.23
2022-08-18T00:19:19.497Z,73.73
2022-08-18T00:21:45.959Z,74.03
2022-08-18T00:24:12.423Z,74.01
2022-08-18T00:26:38.999Z,73.99
2022-08-18T00:29:07.441Z,73.88
2022-08-18T00:31:34.208Z,73.81
2022-08-18T00:34:00.901Z,73.43
2022-08-18T00:36:27.893Z,73.66
2022-08-18T00:38:54.418Z,74.55
2022-08-18T00:41:22.749Z,75.69
2022-08-18T00:43:51.326Z,75.96
2022-08-18T00:46:24.885Z,75.31
2022-08-18T00:48:52.679Z,75.21
2022-08-18T00:51:26.178Z,75.15
2022-08-18T00:54:10.998Z,75.67
2022-08-18T00:56:43.921Z,76.01
2022-08-18T00:59:26.553Z,76.71
2022-08-18T01:01:55.694Z,77.66
2022-08-18T01:04:26.965Z,78.15
2022-08-18T01:07:00.665Z,78.29
2022-08-18T01:09:27.866Z,78.81
2022-08-18T01:11:54.388Z,79.24
2022-08-18T01:14:21.017Z,79.63
2022-08-18T01:17:08.580Z,79.72
2022-08-18T01:19:55.366Z,79.34
2022-08-18T01:22:35.194Z,79.53
2022-08-18T01:25:20.853Z,79.11
2022-08-18T01:27:51.370Z,79.15
2022-08-18T01:30:18.358Z,79.22
2022-08-18T01:32:46.014Z,79.05
2022-08-18T01:35:15.930Z,79.75
2022-08-18T01:37:42.560Z,80.27
2022-08-18T01:41:17.404Z,80.38
2022-08-18T01:42:58.554Z,80.62
2022-08-18T01:45:25.243Z,80.35
2022-08-18T01:47:51.691Z,80.89
2022-08-18T01:50:18.381Z,80.48
2022-08-18T01:52:45.179Z,81.05
2022-08-18T01:55:11.754Z,81.16
2022-08-18T01:57:42.991Z,81.00
2022-08-18T02:00:12.581Z,81.17
2022-08-18T02:02:39.897Z,81.41
2022-08-18T02:05:29.090Z,81.19
2022-08-18T02:07:57.976Z,81.43
2022-08-18T02:10:24.944Z,81.36
2022-08-18T02:12:51.375Z,81.34
2022-08-18T02:15:17.831Z,81.22
2022-08-18T02:17:45.858Z,80.73
2022-08-18T02:20:15.752Z,81.44
2022-08-18T02:22:43.070Z,81.40
2022-08-18T02:25:11.410Z,81.10
2022-08-18T02:27:38.228Z,81.27
2022-08-18T02:30:07.965Z,81.19
2022-08-18T02:32:35.076Z,81.88
2022-08-18T02:35:04.046Z,81.83
2022-08-18T02:37:35.234Z,81.73
2022-08-18T02:40:01.861Z,82.13
2022-08-18T02:42:28.642Z,82.25
2022-08-18T02:44:55.250Z,82.21
2022-08-18T02:47:22.232Z,83.43
2022-08-18T02:49:49.411Z,83.49
2022-08-18T02:52:17.346Z,83.46
2022-08-18T02:54:44.059Z,82.64
2022-08-18T02:57:12.138Z,82.82
2022-08-18T02:59:40.270Z,82.63
2022-08-18T03:02:09.110Z,82.96
2022-08-18T03:04:36.091Z,82.88
2022-08-18T03:07:04.632Z,83.00
2022-08-18T03:09:32.447Z,82.38
2022-08-18T03:11:59.824Z,82.40
2022-08-18T03:14:27.030Z,82.88
2022-08-18T03:16:55.253Z,83.10
2022-08-18T03:19:24.105Z,82.65
2022-08-18T03:21:50.825Z,82.17
2022-08-18T03:24:22.657Z,82.95
2022-08-18T03:26:51.400Z,82.87
2022-08-18T03:29:18.233Z,82.63
2022-08-18T03:31:45.418Z,82.83
2022-08-18T03:34:15.747Z,82.86
2022-08-18T03:36:42.238Z,82.73
2022-08-18T03:39:11.264Z,82.86
2022-08-18T03:41:43.918Z,83.04
2022-08-18T03:44:32.980Z,82.84
2022-08-18T03:47:02.813Z,82.96
2022-08-18T03:49:29.573Z,82.85
2022-08-18T03:51:57.017Z,82.10
2022-08-18T03:54:24.235Z,82.44
2022-08-18T03:56:51.082Z,82.49
2022-08-18T03:59:21.334Z,82.17
2022-08-18T04:01:52.266Z,81.92
2022-08-18T04:04:22.880Z,81.48
2022-08-18T04:06:59.545Z,80.66
2022-08-18T04:10:04.773Z,79.92
2022-08-18T04:12:52.631Z,78.57
2022-08-18T04:15:19.493Z,78.85
2022-08-18T04:17:56.247Z,79.13
2022-08-18T04:20:34.491Z,79.03
2022-08-18T04:23:01.226Z,79.12
2022-08-18T04:25:32.585Z,78.84
2022-08-18T04:28:01.504Z,80.06
2022-08-18T04:30:29.067Z,80.23
2022-08-18T04:32:55.588Z,80.68
2022-08-18T04:35:23.700Z,80.47
2022-08-18T04:37:50.376Z,81.04
2022-08-18T04:40:20.242Z,81.07
2022-08-18T04:42:58.010Z,81.42
2022-08-18T04:45:24.460Z,81.40
2022-08-18T04:47:51.664Z,81.41
2022-08-18T04:50:18.930Z,81.68
2022-08-18T04:53:03.979Z,81.58
2022-08-18T04:55:30.468Z,81.69
2022-08-18T04:57:59.008Z,81.23
2022-08-18T05:00:25.528Z,81.07
2022-08-18T05:02:54.441Z,81.20
2022-08-18T05:05:20.887Z,81.13
2022-08-18T05:07:47.632Z,81.34
2022-08-18T05:10:17.602Z,81.34
2022-08-18T05:12:47.185Z,81.18
2022-08-18T05:15:13.643Z,81.32
2022-08-18T05:17:40.218Z,80.65
2022-08-18T05:20:08.764Z,80.53
2022-08-18T05:22:40.706Z,80.40
2022-08-18T05:25:11.896Z,80.44
2022-08-18T05:27:42.642Z,80.09
2022-08-18T05:30:11.217Z,80.45
2022-08-18T05:32:49.200Z,80.17
2022-08-18T05:35:28.866Z,79.98
2022-08-18T05:38:38.068Z,80.04
2022-08-18T05:41:14.029Z,80.19
2022-08-18T05:43:52.160Z,80.36
2022-08-18T05:46:21.959Z,80.12
2022-08-18T05:48:48.638Z,79.76
2022-08-18T05:51:28.075Z,80.31
2022-08-18T05:54:13.068Z,80.45
2022-08-18T05:56:48.841Z,80.24
2022-08-18T05:59:32.475Z,79.86
2022-08-18T06:02:07.823Z,80.07
2022-08-18T06:04:49.458Z,80.21
2022-08-18T06:07:23.163Z,79.71
2022-08-18T06:09:52.565Z,80.14
2022-08-18T06:12:26.018Z,79.63
2022-08-18T06:15:07.190Z,79.71
2022-08-18T06:17:51.237Z,79.93
2022-08-18T06:20:46.160Z,80.08
2022-08-18T06:23:50.385Z,80.10
2022-08-18T06:26:34.987Z,79.98
2022-08-18T06:29:13.611Z,79.89
2022-08-18T06:31:56.738Z,79.66
2022-08-18T06:37:12.874Z,79.53
2022-08-18T06:39:46.573Z,79.17
2022-08-18T06:42:16.009Z,78.65
2022-08-18T06:44:50.502Z,78.73
2022-08-18T06:47:49.389Z,79.30
2022-08-18T06:50:37.402Z,78.79
2022-08-18T06:53:27.455Z,78.77
2022-08-18T06:55:55.132Z,79.07
2022-08-18T06:58:27.687Z,78.64
2022-08-18T07:00:56.673Z,78.79
2022-08-18T07:03:42.179Z,78.58
2022-08-18T07:06:13.545Z,78.68
2022-08-18T07:08:45.350Z,78.96
2022-08-18T07:11:14.106Z,78.79
2022-08-18T07:13:44.368Z,78.56
2022-08-18T07:16:54.445Z,78.82
2022-08-18T07:19:20.621Z,78.37
2022-08-18T07:22:02.901Z,77.98
2022-08-18T07:24:34.242Z,77.91
2022-08-18T07:27:13.389Z,77.52
2022-08-18T07:29:59.960Z,76.61
2022-08-18T07:32:34.733Z,76.35
2022-08-18T07:35:04.488Z,76.35
2022-08-18T07:37:45.423Z,76.02
2022-08-18T07:40:19.938Z,76.12
2022-08-18T07:43:02.578Z,76.67
2022-08-18T07:45:42.967Z,76.95
2022-08-18T07:48:37.086Z,76.23
2022-08-18T07:51:15.251Z,76.23
2022-08-18T07:53:55.916Z,76.04
2022-08-18T07:56:47.590Z,76.04
2022-08-18T07:59:19.432Z,76.22
2022-08-18T08:02:10.453Z,75.78
2022-08-18T08:04:49.378Z,75.43
2022-08-18T08:07:24.924Z,75.32
2022-08-18T08:10:15.133Z,75.39
2022-08-18T08:13:08.080Z,74.47
2022-08-18T08:16:02.943Z,73.86
2022-08-18T08:18:35.528Z,73.87
2022-08-18T08:21:08.908Z,73.36
2022-08-18T08:23:54.368Z,72.24
2022-08-18T08:26:42.663Z,72.10
2022-08-18T08:29:31.300Z,71.07
2022-08-18T08:32:22.188Z,68.50
2022-08-18T08:35:49.644Z,67.54
2022-08-18T08:38:42.909Z,68.17
2022-08-18T08:41:31.363Z,66.85
2022-08-18T08:44:09.185Z,66.95
2022-08-18T08:46:46.649Z,66.16
2022-08-18T08:49:37.632Z,65.98
2022-08-18T08:52:18.763Z,65.66
2022-08-18T08:54:57.370Z,65.35
2022-08-18T08:57:32.237Z,65.54
2022-08-18T09:00:03.786Z,65.61
2022-08-18T09:02:48.089Z,65.33
2022-08-18T09:05:28.932Z,64.87
2022-08-18T09:08:13.504Z,62.94
2022-08-18T09:11:03.910Z,62.39
2022-08-18T09:13:41.515Z,61.61
2022-08-18T09:16:13.579Z,61.88
2022-08-18T09:19:01.066Z,61.57
2022-08-18T09:21:55.566Z,60.97
2022-08-18T09:24:29.945Z,61.67
2022-08-18T09:27:02.257Z,60.13
2022-08-18T09:29:37.803Z,60.02
2022-08-18T09:32:43.960Z,60.07
2022-08-18T09:35:34.272Z,60.27
2022-08-18T09:38:28.426Z,59.66
2022-08-18T09:41:23.531Z,60.43
2022-08-18T09:44:21.360Z,59.33
2022-08-18T09:47:01.321Z,59.53
2022-08-18T09:49:54.589Z,59.56
2022-08-18T09:52:27.608Z,59.01
2022-08-18T09:55:26.239Z,59.54
2022-08-18T09:58:30.814Z,59.77
2022-08-18T10:01:23.325Z,59.55
2022-08-18T10:04:29.300Z,59.08
2022-08-18T10:07:18.540Z,57.57
2022-08-18T10:09:58.777Z,58.42
2022-08-18T10:12:49.041Z,56.98
2022-08-18T10:15:33.082Z,57.64
2022-08-18T10:18:00.910Z,57.17
2022-08-18T10:20:55.045Z,57.89
2022-08-18T10:23:58.444Z,56.39
2022-08-18T10:26:37.451Z,55.39
2022-08-18T10:29:34.636Z,56.55
2022-08-18T10:32:01.182Z,55.53
2022-08-18T10:34:51.784Z,54.67
2022-08-18T10:37:21.531Z,54.84
2022-08-18T10:39:56.158Z,54.28
2022-08-18T10:42:28.578Z,54.60
2022-08-18T10:45:08.063Z,54.93
2022-08-18T10:47:37.019Z,54.59
2022-08-18T10:50:09.249Z,55.05
2022-08-18T10:52:54.572Z,54.87
2022-08-18T10:55:48.905Z,55.11
2022-08-18T10:58:41.700Z,54.77
2022-08-18T11:01:39.467Z,54.69
2022-08-18T11:04:33.830Z,54.25
2022-08-18T11:07:23.126Z,54.60
2022-08-18T11:10:04.542Z,54.75
2022-08-18T11:12:49.857Z,54.29
2022-08-18T11:15:26.693Z,53.94
2022-08-18T11:18:19.976Z,54.61
2022-08-18T11:20:47.473Z,54.27
2022-08-18T11:23:17.187Z,54.87
2022-08-18T11:25:44.897Z,54.57
2022-08-18T11:28:20.880Z,54.36
2022-08-18T11:30:55.711Z,53.94
2022-08-18T11:33:24.556Z,53.85
2022-08-18T11:36:01.480Z,53.50
2022-08-18T11:38:31.270Z,53.38
2022-08-18T11:41:18.862Z,53.48
2022-08-18T11:43:47.893Z,53.08
2022-08-18T11:46:28.167Z,52.77
2022-08-18T11:48:59.999Z,52.77
2022-08-18T11:51:33.719Z,52.23
2022-08-18T11:54:23.550Z,52.86
2022-08-18T11:56:51.418Z,52.45
2022-08-18T11:59:52.826Z,52.42
2022-08-18T12:02:21.233Z,52.12
2022-08-18T12:04:56.992Z,52.13
2022-08-18T12:07:32.124Z,51.18
2022-08-18T12:10:28.410Z,52.02
2022-08-18T12:12:59.630Z,52.02
2022-08-18T12:15:46.444Z,52.09
2022-08-18T12:18:18.795Z,52.04
2022-08-18T12:20:52.981Z,51.53
2022-08-18T12:23:19.453Z,50.73
2022-08-18T12:25:48.010Z,50.55
2022-08-18T12:28:19.221Z,51.29
2022-08-18T12:30:47.756Z,51.02
2022-08-18T12:33:14.395Z,51.01
2022-08-18T12:35:42.243Z,50.18
2022-08-18T12:38:12.755Z,50.88
2022-08-18T12:40:40.998Z,50.38
2022-08-18T12:43:07.686Z,50.52
2022-08-18T12:45:34.296Z,49.97
2022-08-18T12:48:04.558Z,49.77
2022-08-18T12:50:36.301Z,50.33
2022-08-18T12:53:06.553Z,50.21
2022-08-18T12:55:37.789Z,49.23
2022-08-18T12:58:11.323Z,48.79
2022-08-18T13:00:39.450Z,48.70
2022-08-18T13:03:07.175Z,49.30
2022-08-18T13:05:36.064Z,48.83
2022-08-18T13:08:05.883Z,49.20
2022-08-18T13:10:43.033Z,49.08
2022-08-18T13:13:13.556Z,49.23
2022-08-18T13:15:44.354Z,48.68
2022-08-18T13:18:28.928Z,48.47
2022-08-18T13:20:59.434Z,49.20
2022-08-18T13:23:27.497Z,48.75
2022-08-18T13:26:01.413Z,48.54
2022-08-18T13:28:30.267Z,49.26
2022-08-18T13:30:57.242Z,48.07
2022-08-18T13:33:33.917Z,47.05
2022-08-18T13:36:01.991Z,47.00
2022-08-18T13:38:31.546Z,46.82
2022-08-18T13:41:00.701Z,46.50
2022-08-18T13:43:32.068Z,44.82
2022-08-18T13:45:59.917Z,45.95
2022-08-18T13:48:29.808Z,44.04
2022-08-18T13:50:58.920Z,44.66
2022-08-18T13:53:29.506Z,44.43
2022-08-18T13:56:00.825Z,43.81
2022-08-18T13:58:29.272Z,43.06
2022-08-18T14:03:47.984Z,42.08
2022-08-18T14:06:15.711Z,43.28
2022-08-18T14:08:49.665Z,43.41
2022-08-18T14:14:07.218Z,43.68
2022-08-18T14:16:38.446Z,45.00
2022-08-18T14:19:29.018Z,44.88
2022-08-18T14:22:32.050Z,44.72
2022-08-18T14:25:17.184Z,43.39
2022-08-18T14:27:56.706Z,43.66
2022-08-18T14:30:24.209Z,42.62
2022-08-18T14:32:53.392Z,41.84
2022-08-18T14:36:03.784Z,41.59
2022-08-18T14:38:09.831Z,41.82
2022-08-18T14:40:42.936Z,41.83
2022-08-18T14:43:11.236Z,41.47
2022-08-18T14:45:45.786Z,42.01
2022-08-18T14:48:12.502Z,41.61
2022-08-18T14:50:44.817Z,40.93
2022-08-18T14:53:20.087Z,41.22
2022-08-18T14:55:52.546Z,39.78
2022-08-18T14:58:21.210Z,40.77
2022-08-18T15:00:54.070Z,40.74
2022-08-18T15:03:28.200Z,40.50
2022-08-18T15:05:58.751Z,40.50
2022-08-18T15:08:26.150Z,39.57
2022-08-18T15:10:53.947Z,40.48
2022-08-18T15:13:20.774Z,40.37
2022-08-18T15:15:53.612Z,41.24
2022-08-18T15:18:22.839Z,41.19
2022-08-18T15:21:10.282Z,42.25
2022-08-18T15:24:04.692Z,42.39
2022-08-18T15:26:42.491Z,42.35
2022-08-18T15:29:10.889Z,42.93
2022-08-18T15:32:01.940Z,43.32
2022-08-18T15:34:28.662Z,43.43
2022-08-18T15:36:56.932Z,43.11
2022-08-18T15:39:24.201Z,43.20
2022-08-18T15:44:22.343Z,43.63
2022-08-18T15:46:53.283Z,43.77
2022-08-18T15:49:21.716Z,42.66
2022-08-18T15:51:49.637Z,42.43
2022-08-18T15:54:16.366Z,42.41
2022-08-18T15:56:58.101Z,41.35
2022-08-18T15:59:26.979Z,41.76
2022-08-18T16:02:02.138Z,40.69
2022-08-18T16:04:28.640Z,40.12
2022-08-18T16:06:56.151Z,40.45
2022-08-18T16:09:22.800Z,41.04
2022-08-18T16:11:49.590Z,41.04
2022-08-18T16:14:16.069Z,39.98
2022-08-18T16:16:42.517Z,40.08
2022-08-18T16:19:08.960Z,40.28
2022-08-18T16:21:39.589Z,39.41
2022-08-18T16:24:07.764Z,39.97
2022-08-18T16:26:35.484Z,39.14
2022-08-18T16:29:02.204Z,38.44
2022-08-18T16:31:29.394Z,39.76
2022-08-18T16:33:57.885Z,39.53
2022-08-18T16:36:27.828Z,39.40
2022-08-18T16:38:58.202Z,39.71
2022-08-18T16:41:26.550Z,40.19
2022-08-18T16:43:53.160Z,41.38
2022-08-18T16:46:26.455Z,41.49
2022-08-18T16:48:57.917Z,41.23
2022-08-18T16:51:27.353Z,41.71
2022-08-18T16:53:54.552Z,41.65
2022-08-18T16:56:27.603Z,42.20
2022-08-18T16:59:13.222Z,42.40
2022-08-18T17:01:59.194Z,42.08
2022-08-18T17:04:33.372Z,42.45
2022-08-18T17:07:01.668Z,42.78
2022-08-18T17:09:33.045Z,42.97
2022-08-18T17:11:59.803Z,42.67
2022-08-18T17:14:28.393Z,42.75
2022-08-18T17:16:56.030Z,42.33
2022-08-18T17:19:24.475Z,42.50
2022-08-18T17:21:51.282Z,42.88
2022-08-18T17:24:18.617Z,42.96
2022-08-18T17:27:11.900Z,43.15
2022-08-18T17:30:30.708Z,43.20
2022-08-18T17:33:15.959Z,42.92
2022-08-18T17:35:45.245Z,42.82
2022-08-18T17:38:32.502Z,43.04
2022-08-18T17:41:04.377Z,42.90
2022-08-18T17:46:19.414Z,42.50
2022-08-18T17:48:55.116Z,42.87
2022-08-18T17:51:43.451Z,43.56
2022-08-18T17:54:23.447Z,42.66
2022-08-18T17:56:54.460Z,42.26
2022-08-18T17:59:45.318Z,42.75
2022-08-18T18:02:29.219Z,43.14
2022-08-18T18:05:01.305Z,42.80
2022-08-18T18:07:35.662Z,42.81
2022-08-18T18:10:22.333Z,42.72
2022-08-18T18:13:25.130Z,43.50
2022-08-18T18:15:55.851Z,43.68
2022-08-18T18:18:33.916Z,43.56
2022-08-18T18:21:22.865Z,44.08
2022-08-18T18:24:09.221Z,44.34
2022-08-18T18:26:43.485Z,44.21
2022-08-18T18:29:16.964Z,44.84
2022-08-18T18:32:04.096Z,45.09
2022-08-18T18:35:03.762Z,45.33
2022-08-18T18:37:33.060Z,45.48
2022-08-18T18:40:04.084Z,45.55
2022-08-18T18:42:33.183Z,46.00
2022-08-18T18:45:02.995Z,45.96
2022-08-18T18:47:32.309Z,46.11
2022-08-18T18:50:12.525Z,46.57
2022-08-18T18:53:01.581Z,46.20
2022-08-18T18:55:33.240Z,46.24
2022-08-18T18:58:23.969Z,46.47
2022-08-18T19:00:59.536Z,46.62
2022-08-18T19:03:48.394Z,47.22
2022-08-18T19:06:31.189Z,46.96
2022-08-18T19:09:03.777Z,46.82
2022-08-18T19:11:41.005Z,47.27
2022-08-18T19:14:17.549Z,47.69
2022-08-18T19:16:54.117Z,47.78
2022-08-18T19:19:35.335Z,47.94
2022-08-18T19:22:31.139Z,47.95
2022-08-18T19:25:07.418Z,47.77
2022-08-18T19:27:40.152Z,48.34
2022-08-18T19:30:13.403Z,48.73
2022-08-18T19:32:48.710Z,48.89
2022-08-18T19:35:19.894Z,49.07
2022-08-18T19:38:22.870Z,49.00
2022-08-18T19:40:54.925Z,49.15
2022-08-18T19:43:35.985Z,49.55
2022-08-18T19:46:20.494Z,48.96
2022-08-18T19:49:01.405Z,49.28
2022-08-18T19:51:37.455Z,49.81
2022-08-18T19:54:23.540Z,49.80
2022-08-18T19:57:11.842Z,49.95
2022-08-18T19:59:45.817Z,49.67
2022-08-18T20:02:19.364Z,50.40
2022-08-18T20:05:01.037Z,50.42
2022-08-18T20:07:27.461Z,50.39
2022-08-18T20:10:23.268Z,51.07
2022-08-18T20:13:05.483Z,51.10
2022-08-18T20:15:32.063Z,52.31
2022-08-18T20:17:58.427Z,52.25
2022-08-18T20:20:43.156Z,52.60
2022-08-18T20:23:29.926Z,52.14
2022-08-18T20:25:56.539Z,52.46
2022-08-18T20:28:32.459Z,52.73
2022-08-18T20:31:15.206Z,52.58
2022-08-18T20:33:46.988Z,52.87
2022-08-18T20:36:28.561Z,52.20
2022-08-18T20:38:58.585Z,52.07
2022-08-18T20:41:28.203Z,52.43
2022-08-18T20:44:36.478Z,52.86
2022-08-18T20:47:09.281Z,52.90
2022-08-18T20:50:13.344Z,52.77
2022-08-18T20:53:01.907Z,52.90
2022-08-18T20:56:32.619Z,53.43
2022-08-18T20:59:11.989Z,53.81
2022-08-18T21:01:39.036Z,54.20
2022-08-18T21:04:06.415Z,53.84
2022-08-18T21:06:38.846Z,53.74
2022-08-18T21:09:05.502Z,53.92
2022-08-18T21:11:40.711Z,54.15
2022-08-18T21:14:07.765Z,54.10
2022-08-18T21:16:39.259Z,54.84
2022-08-18T21:19:27.876Z,54.65
2022-08-18T21:21:58.055Z,55.12
2022-08-18T21:24:43.014Z,54.25
2022-08-18T21:27:40.558Z,54.42
2022-08-18T21:30:17.441Z,54.73
2022-08-18T21:32:46.912Z,55.29
2022-08-18T21:35:28.353Z,55.00
2022-08-18T21:38:10.683Z,55.14
2022-08-18T21:40:45.457Z,55.22
2022-08-18T21:43:15.276Z,55.53
2022-08-18T21:45:47.834Z,55.96
2022-08-18T21:48:14.877Z,55.91
2022-08-18T21:50:51.541Z,55.79
2022-08-18T21:53:28.132Z,56.22
2022-08-18T21:55:56.321Z,55.77
2022-08-18T21:58:32.782Z,56.23
2022-08-18T22:01:10.071Z,55.78
2022-08-18T22:03:49.846Z,56.30
2022-08-18T22:06:27.673Z,56.36
2022-08-18T22:09:28.216Z,56.42
2022-08-18T22:12:47.294Z,56.87
2022-08-18T22:15:19.860Z,56.99
2022-08-18T22:17:55.497Z,56.58
2022-08-18T22:20:46.131Z,57.45
2022-08-18T22:23:34.291Z,57.32
2022-08-18T22:26:12.646Z,57.56
2022-08-18T22:28:58.374Z,57.55
2022-08-18T22:31:31.145Z,57.54
2022-08-18T22:34:01.313Z,57.54
2022-08-18T22:36:32.575Z,57.92
2022-08-18T22:39:00.522Z,57.71
2022-08-18T22:41:27.322Z,57.55
2022-08-18T22:43:55.518Z,58.22
2022-08-18T22:46:24.193Z,58.29
2022-08-18T22:48:51.609Z,57.89
2022-08-18T22:51:22.192Z,58.53
2022-08-18T22:53:48.703Z,57.96
2022-08-18T22:56:15.403Z,57.81
2022-08-18T22:58:49.175Z,58.04
2022-08-18T23:01:17.578Z,58.55
2022-08-18T23:03:44.109Z,58.36
2022-08-18T23:06:11.080Z,58.72
2022-08-18T23:08:54.605Z,58.63
2022-08-18T23:11:24.123Z,59.69
2022-08-18T23:13:50.875Z,60.65
2022-08-18T23:16:30.729Z,60.39
2022-08-18T23:19:01.852Z,60.10
2022-08-18T23:21:34.863Z,60.46
2022-08-18T23:24:03.360Z,59.65
2022-08-18T23:26:30.617Z,59.99
2022-08-18T23:28:57.605Z,59.84
2022-08-18T23:31:24.123Z,59.60
2022-08-18T23:33:50.640Z,59.86
2022-08-18T23:36:17.851Z,60.04
2022-08-18T23:38:44.614Z,60.13
2022-08-18T23:41:12.892Z,59.98
2022-08-18T23:43:39.549Z,59.81
2022-08-18T23:46:19.086Z,60.46
2022-08-18T23:48:49.692Z,60.32
2022-08-18T23:51:36.943Z,60.60
2022-08-18T23:54:06.851Z,61.14
2022-08-18T23:56:35.004Z,60.96
2022-08-18T23:59:02.848Z,60.88
